Time;durP1;ratioP1;P1;durP2;ratioP2;P2;SDS_P1;SDS_P2;PMS_P1;PMS_P2;Temp;Humidity;BMP_temperature;BMP_pressure;BME280_temperature;BME280_humidity;BME280_pressure;Samples;Min_cycle;Max_cycle;Signal;HPM_P1;HPM_P2
2023/03/22 00:00:32;;;;;;;0.68;0.65;;;;;;;;;;5033260;28;20049;-63
2023/03/22 00:03:01;;;;;;;4.10;1.27;;;;;;;;;;5039798;28;20048;-62
2023/03/22 00:05:30;;;;;;;1.13;0.80;;;;;;;;;;5033985;28;20425;-61
2023/03/22 00:07:58;;;;;;;1.35;0.75;;;;;;;;;;5032110;28;20323;-63
2023/03/22 00:10:27;;;;;;;2.15;1.20;;;;;;;;;;5035460;28;20064;-63
2023/03/22 00:12:57;;;;;;;2.42;2.00;;;;;;;;;;5026243;28;20054;-62
2023/03/22 00:15:28;;;;;;;0.90;0.60;;;;;;;;;;5014423;28;20049;-62
2023/03/22 00:17:57;;;;;;;2.97;0.90;;;;;;;;;;5016903;28;20487;-63
2023/03/22 00:20:29;;;;;;;1.75;1.00;;;;;;;;;;5015562;28;20144;-64
2023/03/22 00:22:57;;;;;;;1.63;1.25;;;;;;;;;;5015253;28;20053;-63
2023/03/22 00:25:26;;;;;;;3.10;1.25;;;;;;;;;;5011344;28;20069;-62
2023/03/22 00:27:54;;;;;;;1.50;0.70;;;;;;;;;;5015772;28;20060;-63
2023/03/22 00:30:24;;;;;;;2.28;1.25;;;;;;;;;;5019830;28;20045;-63
2023/03/22 00:32:52;;;;;;;2.25;0.93;;;;;;;;;;5017902;28;20056;-63
2023/03/22 00:35:20;;;;;;;3.08;1.20;;;;;;;;;;5016116;28;20052;-62
2023/03/22 00:37:49;;;;;;;0.80;0.80;;;;;;;;;;5020329;28;20559;-62
2023/03/22 00:40:18;;;;;;;1.60;1.13;;;;;;;;;;5015674;28;20060;-61
2023/03/22 00:42:46;;;;;;;2.13;0.95;;;;;;;;;;5016101;28;20061;-63
2023/03/22 00:45:14;;;;;;;2.08;0.85;;;;;;;;;;5013710;28;20068;-61
2023/03/22 00:47:44;;;;;;;0.95;0.90;;;;;;;;;;5014571;28;20054;-63
2023/03/22 00:50:12;;;;;;;2.17;1.20;;;;;;;;;;5018032;28;20124;-63
2023/03/22 00:52:40;;;;;;;2.00;0.90;;;;;;;;;;5016478;28;20052;-62
2023/03/22 00:55:09;;;;;;;2.50;1.25;;;;;;;;;;5012743;28;20129;-63
2023/03/22 00:57:37;;;;;;;1.25;1.00;;;;;;;;;;5016264;28;20064;-61
2023/03/22 01:00:09;;;;;;;1.77;1.10;;;;;;;;;;5012729;28;20046;-63
2023/03/22 01:02:38;;;;;;;1.73;1.05;;;;;;;;;;5017149;28;20056;-62
2023/03/22 01:05:08;;;;;;;3.40;1.17;;;;;;;;;;5013098;28;20105;-62
2023/03/22 01:07:40;;;;;;;1.98;1.08;;;;;;;;;;5010701;28;20050;-63
2023/03/22 01:10:09;;;;;;;1.77;1.00;;;;;;;;;;5018393;28;20455;-63
2023/03/22 01:12:38;;;;;;;2.00;1.08;;;;;;;;;;5018131;28;20064;-63
2023/03/22 01:15:07;;;;;;;2.15;1.05;;;;;;;;;;5035588;28;20041;-62
2023/03/22 01:17:35;;;;;;;2.65;1.17;;;;;;;;;;5031152;28;20049;-62
2023/03/22 01:20:05;;;;;;;4.20;1.40;;;;;;;;;;5033978;28;20050;-62
2023/03/22 01:22:35;;;;;;;2.95;1.20;;;;;;;;;;5031556;28;20185;-63
2023/03/22 01:25:04;;;;;;;0.82;0.65;;;;;;;;;;5032298;28;20046;-62
2023/03/22 01:27:32;;;;;;;1.42;0.93;;;;;;;;;;5034180;28;20123;-63
2023/03/22 01:30:00;;;;;;;4.10;1.40;;;;;;;;;;5034776;28;20061;-61
2023/03/22 01:32:29;;;;;;;20.38;1.10;;;;;;;;;;5031922;28;20045;-63
2023/03/22 01:34:57;;;;;;;2.67;1.27;;;;;;;;;;5036629;28;20049;-62
2023/03/22 01:37:26;;;;;;;2.10;0.88;;;;;;;;;;5033829;28;20045;-63
2023/03/22 01:39:56;;;;;;;2.03;0.82;;;;;;;;;;5031510;28;20132;-61
2023/03/22 01:42:25;;;;;;;3.78;1.40;;;;;;;;;;5034892;28;20053;-63
2023/03/22 01:45:11;;;;;;;1.52;0.80;;;;;;;;;;5032412;28;20075;-63
2023/03/22 01:47:40;;;;;;;1.77;1.10;;;;;;;;;;5029354;28;20140;-63
2023/03/22 01:50:09;;;;;;;2.58;1.08;;;;;;;;;;5038475;28;20080;-62
2023/03/22 01:52:38;;;;;;;4.18;1.17;;;;;;;;;;5035274;28;20056;-62
2023/03/22 01:55:08;;;;;;;4.18;1.35;;;;;;;;;;5033062;28;20042;-62
2023/03/22 01:57:37;;;;;;;1.85;1.00;;;;;;;;;;5033442;28;20045;-63
2023/03/22 02:00:09;;;;;;;4.93;0.98;;;;;;;;;;5030620;28;20061;-63
2023/03/22 02:02:38;;;;;;;1.38;1.25;;;;;;;;;;5033285;28;20390;-62
2023/03/22 02:05:07;;;;;;;4.45;1.13;;;;;;;;;;5336856;22;22603;-81
2023/03/22 02:07:36;;;;;;;3.08;0.90;;;;;;;;;;5033775;28;20063;-81
2023/03/22 02:10:05;;;;;;;8.15;2.03;;;;;;;;;;5034241;28;20140;-81
2023/03/22 02:12:42;;;;;;;1.60;0.80;;;;;;;;;;5039148;28;20060;-81
2023/03/22 02:15:13;;;;;;;1.30;1.20;;;;;;;;;;5031055;28;20054;-81
2023/03/22 02:17:50;;;;;;;5.97;1.25;;;;;;;;;;5033472;28;20084;-80
2023/03/22 02:20:40;;;;;;;0.52;0.52;;;;;;;;;;5037805;28;20057;-81
2023/03/22 02:23:27;;;;;;;1.55;1.10;;;;;;;;;;5028098;28;20048;-82
2023/03/22 02:26:28;;;;;;;1.48;0.85;;;;;;;;;;5040665;28;20049;-81
2023/03/22 02:29:01;;;;;;;1.40;0.80;;;;;;;;;;5032972;28;20057;-81
2023/03/22 02:31:44;;;;;;;3.78;1.77;;;;;;;;;;5037660;28;20091;-81
2023/03/22 02:34:30;;;;;;;1.52;0.95;;;;;;;;;;4984607;28;20053;-81
2023/03/22 02:37:07;;;;;;;2.35;1.15;;;;;;;;;;5036918;28;20063;-81
2023/03/22 02:39:41;;;;;;;1.05;0.88;;;;;;;;;;5032518;28;20047;-81
2023/03/22 02:42:30;;;;;;;0.63;0.63;;;;;;;;;;5036841;28;20059;-81
2023/03/22 02:45:00;;;;;;;2.92;1.33;;;;;;;;;;5038757;28;20048;-82
2023/03/22 02:47:34;;;;;;;2.20;1.13;;;;;;;;;;5037600;28;20064;-82
2023/03/22 02:50:06;;;;;;;1.75;1.33;;;;;;;;;;5037576;28;20478;-82
2023/03/22 02:52:38;;;;;;;1.65;0.98;;;;;;;;;;5037277;28;20072;-81
2023/03/22 02:55:11;;;;;;;0.93;0.82;;;;;;;;;;5036577;28;20124;-81
2023/03/22 02:57:43;;;;;;;3.40;1.30;;;;;;;;;;5036392;28;20511;-82
2023/03/22 03:00:13;;;;;;;3.33;1.35;;;;;;;;;;5036432;28;20045;-81
2023/03/22 03:02:44;;;;;;;5.70;1.08;;;;;;;;;;5035854;28;20049;-81
2023/03/22 03:05:14;;;;;;;2.38;1.23;;;;;;;;;;5017014;28;20137;-80
2023/03/22 03:07:43;;;;;;;2.03;1.13;;;;;;;;;;5007974;28;20559;-81
2023/03/22 03:10:14;;;;;;;1.60;1.27;;;;;;;;;;5004087;28;20057;-81
2023/03/22 03:12:43;;;;;;;1.73;0.93;;;;;;;;;;5009420;28;20141;-81
2023/03/22 03:15:13;;;;;;;2.13;1.05;;;;;;;;;;5006420;28;20499;-81
2023/03/22 03:17:46;;;;;;;1.77;0.70;;;;;;;;;;5003974;28;20576;-81
2023/03/22 03:20:23;;;;;;;1.60;1.00;;;;;;;;;;5011653;28;20048;-81
2023/03/22 03:22:56;;;;;;;3.15;1.23;;;;;;;;;;5012748;28;20053;-81
2023/03/22 03:25:28;;;;;;;1.15;0.80;;;;;;;;;;5011325;28;20057;-82
2023/03/22 03:28:00;;;;;;;3.35;0.98;;;;;;;;;;5006294;28;20061;-81
2023/03/22 03:30:32;;;;;;;1.98;1.20;;;;;;;;;;5008228;28;20049;-81
2023/03/22 03:33:03;;;;;;;1.85;1.25;;;;;;;;;;5012290;28;20498;-81
2023/03/22 03:35:36;;;;;;;1.17;1.08;;;;;;;;;;5013834;28;20051;-80
2023/03/22 03:38:08;;;;;;;1.80;0.98;;;;;;;;;;5007317;28;20522;-81
2023/03/22 03:40:40;;;;;;;2.17;1.17;;;;;;;;;;5008243;28;20070;-82
2023/03/22 03:43:09;;;;;;;4.07;1.15;;;;;;;;;;5009374;28;20049;-81
2023/03/22 03:45:38;;;;;;;1.20;0.93;;;;;;;;;;5015435;28;20056;-82
2023/03/22 03:48:09;;;;;;;1.95;1.10;;;;;;;;;;5008467;28;20049;-83
2023/03/22 03:50:37;;;;;;;4.38;1.98;;;;;;;;;;5013320;28;20077;-83
2023/03/22 03:53:06;;;;;;;2.10;1.02;;;;;;;;;;5009524;28;20053;-82
2023/03/22 03:55:35;;;;;;;1.48;1.10;;;;;;;;;;5008805;28;20046;-83
2023/03/22 03:58:04;;;;;;;1.20;0.63;;;;;;;;;;5010698;28;20053;-82
2023/03/22 04:00:33;;;;;;;2.33;1.30;;;;;;;;;;5012073;28;20046;-82
2023/03/22 04:03:01;;;;;;;6.80;1.55;;;;;;;;;;5011179;28;20410;-81
2023/03/22 04:05:30;;;;;;;2.05;1.13;;;;;;;;;;5011969;28;20053;-82
2023/03/22 04:07:58;;;;;;;3.20;1.42;;;;;;;;;;5008129;28;20068;-81
2023/03/22 04:10:26;;;;;;;5.45;0.90;;;;;;;;;;5007786;28;20061;-81
2023/03/22 04:12:55;;;;;;;1.75;1.50;;;;;;;;;;5009855;28;20050;-81
2023/03/22 04:15:24;;;;;;;3.30;1.02;;;;;;;;;;5011096;28;20041;-82
2023/03/22 04:17:53;;;;;;;3.67;1.35;;;;;;;;;;5011094;28;20144;-81
2023/03/22 04:20:22;;;;;;;1.65;0.95;;;;;;;;;;5003221;28;20046;-81
2023/03/22 04:22:51;;;;;;;3.47;1.45;;;;;;;;;;5013839;28;20491;-81
2023/03/22 04:25:21;;;;;;;0.93;0.85;;;;;;;;;;5009852;28;20050;-81
2023/03/22 04:27:50;;;;;;;2.20;0.98;;;;;;;;;;5013209;28;20637;-81
2023/03/22 04:30:20;;;;;;;3.40;1.40;;;;;;;;;;5011825;28;21558;-81
2023/03/22 04:32:50;;;;;;;0.82;0.82;;;;;;;;;;5013848;28;20045;-81
2023/03/22 04:35:19;;;;;;;1.95;1.13;;;;;;;;;;5012278;28;20045;-81
2023/03/22 04:37:47;;;;;;;1.75;1.30;;;;;;;;;;5005207;28;20099;-82
2023/03/22 04:40:16;;;;;;;1.77;1.02;;;;;;;;;;5005677;28;20488;-81
2023/03/22 04:42:45;;;;;;;1.50;1.20;;;;;;;;;;5012993;28;20132;-81
2023/03/22 04:45:14;;;;;;;2.45;1.27;;;;;;;;;;5003837;28;20061;-81
2023/03/22 04:47:42;;;;;;;2.58;1.15;;;;;;;;;;5012194;28;20147;-81
2023/03/22 04:50:12;;;;;;;1.33;0.98;;;;;;;;;;5013424;28;20053;-80
2023/03/22 04:52:41;;;;;;;5.13;0.98;;;;;;;;;;5005951;28;20053;-80
2023/03/22 04:55:09;;;;;;;2.25;1.40;;;;;;;;;;5010436;28;20406;-81
2023/03/22 04:57:37;;;;;;;2.25;1.08;;;;;;;;;;5012561;28;20053;-81
2023/03/22 05:00:08;;;;;;;2.33;0.98;;;;;;;;;;5006854;28;20046;-81
2023/03/22 05:02:39;;;;;;;1.55;1.45;;;;;;;;;;5007254;28;20049;-81
2023/03/22 05:05:09;;;;;;;2.25;1.20;;;;;;;;;;4983397;28;20061;-82
2023/03/22 05:07:39;;;;;;;1.30;1.13;;;;;;;;;;5002999;28;20045;-81
2023/03/22 05:10:08;;;;;;;3.60;0.95;;;;;;;;;;5019693;28;20050;-83
2023/03/22 05:12:37;;;;;;;1.67;1.02;;;;;;;;;;4986318;28;20038;-84
2023/03/22 05:15:06;;;;;;;1.90;1.27;;;;;;;;;;4989374;28;20406;-80
2023/03/22 05:17:35;;;;;;;2.42;1.70;;;;;;;;;;5002204;28;20045;-81
2023/03/22 05:20:08;;;;;;;6.18;1.25;;;;;;;;;;4971952;28;21167;-82
2023/03/22 05:22:39;;;;;;;1.33;1.23;;;;;;;;;;5023966;28;20050;-82
2023/03/22 05:25:10;;;;;;;1.42;0.80;;;;;;;;;;5018492;28;20056;-81
2023/03/22 05:27:39;;;;;;;1.92;0.88;;;;;;;;;;5023532;28;20140;-81
2023/03/22 05:30:08;;;;;;;4.40;1.60;;;;;;;;;;5023925;28;20486;-81
2023/03/22 05:32:41;;;;;;;4.30;1.52;;;;;;;;;;5020657;28;20046;-80
2023/03/22 05:35:10;;;;;;;3.05;1.20;;;;;;;;;;5020800;28;20056;-83
2023/03/22 05:37:38;;;;;;;4.32;1.15;;;;;;;;;;5020580;28;20490;-81
2023/03/22 05:40:08;;;;;;;1.52;0.82;;;;;;;;;;5022081;28;20050;-84
2023/03/22 05:42:39;;;;;;;2.53;0.98;;;;;;;;;;5019836;28;20045;-82
2023/03/22 05:45:09;;;;;;;8.90;1.92;;;;;;;;;;5017984;28;20053;-82
2023/03/22 05:47:38;;;;;;;2.33;1.35;;;;;;;;;;5020267;28;20125;-82
2023/03/22 05:50:07;;;;;;;1.40;1.25;;;;;;;;;;5020847;28;20057;-86
2023/03/22 05:52:36;;;;;;;1.00;1.00;;;;;;;;;;5021152;28;20494;-88
2023/03/22 05:55:05;;;;;;;1.33;0.95;;;;;;;;;;5024936;28;20481;-83
2023/03/22 05:57:34;;;;;;;2.65;0.93;;;;;;;;;;5021977;28;20068;-81
2023/03/22 06:00:08;;;;;;;2.17;0.85;;;;;;;;;;5021553;28;20072;-84
2023/03/22 06:02:36;;;;;;;1.15;0.80;;;;;;;;;;5020183;28;20378;-82
2023/03/22 06:05:05;;;;;;;2.25;0.98;;;;;;;;;;5018387;28;20136;-83
2023/03/22 06:07:34;;;;;;;2.20;1.05;;;;;;;;;;5021888;28;20107;-84
2023/03/22 06:10:03;;;;;;;2.58;1.27;;;;;;;;;;5025250;28;20049;-83
2023/03/22 06:12:32;;;;;;;5.25;1.02;;;;;;;;;;5020123;28;20133;-82
2023/03/22 06:15:00;;;;;;;7.55;1.48;;;;;;;;;;5019944;28;20056;-83
2023/03/22 06:17:30;;;;;;;3.33;1.10;;;;;;;;;;5023860;28;20490;-83
2023/03/22 06:20:08;;;;;;;2.33;0.98;;;;;;;;;;5023085;28;20137;-84
2023/03/22 06:22:36;;;;;;;2.47;0.98;;;;;;;;;;5021044;28;20057;-83
2023/03/22 06:25:05;;;;;;;4.93;1.52;;;;;;;;;;5025935;28;20129;-85
2023/03/22 06:27:34;;;;;;;2.65;1.00;;;;;;;;;;5023045;28;20124;-83
2023/03/22 06:30:03;;;;;;;2.78;1.00;;;;;;;;;;5026513;28;20055;-84
2023/03/22 06:32:33;;;;;;;1.20;1.00;;;;;;;;;;5026170;28;20129;-85
2023/03/22 06:35:01;;;;;;;2.67;1.23;;;;;;;;;;5029232;28;20053;-86
2023/03/22 06:37:30;;;;;;;1.13;0.82;;;;;;;;;;5024894;28;20059;-84
2023/03/22 06:39:58;;;;;;;1.77;1.00;;;;;;;;;;5029037;28;20051;-85
2023/03/22 06:42:33;;;;;;;14.88;1.45;;;;;;;;;;5022313;28;20045;-83
2023/03/22 06:45:02;;;;;;;1.20;0.57;;;;;;;;;;5026500;28;20045;-83
2023/03/22 06:47:31;;;;;;;1.55;1.02;;;;;;;;;;5026439;28;20111;-84
2023/03/22 06:50:00;;;;;;;3.72;1.42;;;;;;;;;;5024580;28;20367;-84
2023/03/22 06:52:29;;;;;;;1.00;0.88;;;;;;;;;;5022032;28;20124;-84
2023/03/22 06:54:57;;;;;;;1.13;1.10;;;;;;;;;;5025998;28;20107;-84
2023/03/22 06:57:27;;;;;;;2.38;0.98;;;;;;;;;;5028710;28;20041;-85
2023/03/22 06:59:56;;;;;;;3.35;1.25;;;;;;;;;;5028124;28;20054;-85
2023/03/22 07:02:24;;;;;;;1.05;0.80;;;;;;;;;;5029242;28;20107;-85
2023/03/22 07:04:53;;;;;;;3.50;2.00;;;;;;;;;;5018356;28;20454;-84
2023/03/22 07:07:23;;;;;;;0.90;0.57;;;;;;;;;;5013168;28;20060;-83
2023/03/22 07:09:52;;;;;;;1.80;0.77;;;;;;;;;;5006438;28;20073;-85
2023/03/22 07:12:20;;;;;;;1.08;0.63;;;;;;;;;;5018849;28;20081;-85
2023/03/22 07:14:49;;;;;;;2.13;1.23;;;;;;;;;;5017854;28;20054;-85
2023/03/22 07:17:18;;;;;;;1.17;0.75;;;;;;;;;;5022179;28;20050;-85
2023/03/22 07:19:47;;;;;;;1.13;0.88;;;;;;;;;;5020421;28;20054;-85
2023/03/22 07:22:16;;;;;;;3.28;0.70;;;;;;;;;;5016217;28;20049;-86
2023/03/22 07:24:46;;;;;;;3.20;0.82;;;;;;;;;;5017742;28;20482;-85
2023/03/22 07:27:25;;;;;;;1.63;1.05;;;;;;;;;;5017087;28;20046;-85
2023/03/22 07:29:53;;;;;;;2.33;0.93;;;;;;;;;;5020267;28;20449;-84
2023/03/22 07:32:21;;;;;;;0.80;0.80;;;;;;;;;;5017428;28;20125;-85
2023/03/22 07:34:52;;;;;;;1.33;0.77;;;;;;;;;;5014122;28;20560;-87
2023/03/22 07:37:22;;;;;;;1.38;0.52;;;;;;;;;;5016149;28;20056;-85
2023/03/22 07:39:52;;;;;;;3.17;1.17;;;;;;;;;;5018984;28;20140;-87
2023/03/22 07:42:20;;;;;;;0.40;0.40;;;;;;;;;;5019016;28;20143;-84
2023/03/22 07:44:49;;;;;;;2.55;1.00;;;;;;;;;;5018009;28;20123;-81
2023/03/22 07:47:18;;;;;;;1.13;0.60;;;;;;;;;;5013526;28;20547;-84
2023/03/22 07:50:01;;;;;;;1.58;0.70;;;;;;;;;;5011532;28;20050;-83
2023/03/22 07:52:29;;;;;;;2.30;0.68;;;;;;;;;;5011054;28;20520;-81
2023/03/22 07:54:59;;;;;;;2.88;0.88;;;;;;;;;;5014682;28;20517;-81
2023/03/22 07:57:27;;;;;;;0.52;0.50;;;;;;;;;;5015739;28;20053;-83
2023/03/22 07:59:56;;;;;;;1.25;0.60;;;;;;;;;;5013045;28;20053;-83
2023/03/22 08:02:25;;;;;;;3.33;1.20;;;;;;;;;;5006983;28;20482;-83
2023/03/22 08:04:53;;;;;;;2.17;0.68;;;;;;;;;;5009202;28;20050;-83
2023/03/22 08:07:24;;;;;;;0.50;0.50;;;;;;;;;;5009868;28;20049;-81
2023/03/22 08:09:53;;;;;;;2.88;0.95;;;;;;;;;;5012392;28;20482;-84
2023/03/22 08:12:23;;;;;;;0.60;0.40;;;;;;;;;;5011758;28;20054;-83
2023/03/22 08:14:52;;;;;;;3.30;0.80;;;;;;;;;;5014877;28;20081;-82
2023/03/22 08:17:21;;;;;;;1.08;0.50;;;;;;;;;;5010550;28;20461;-83
2023/03/22 08:19:49;;;;;;;4.50;0.80;;;;;;;;;;5008290;28;20081;-82
2023/03/22 08:22:22;;;;;;;1.02;0.77;;;;;;;;;;5008258;28;21991;-82
2023/03/22 08:24:50;;;;;;;0.45;0.43;;;;;;;;;;5013053;28;20050;-83
2023/03/22 08:27:20;;;;;;;1.40;1.00;;;;;;;;;;5004880;28;20058;-82
2023/03/22 08:29:50;;;;;;;5.40;1.50;;;;;;;;;;5013459;28;20054;-82
2023/03/22 08:32:19;;;;;;;3.33;0.95;;;;;;;;;;5010698;28;20053;-82
2023/03/22 08:34:47;;;;;;;7.22;1.20;;;;;;;;;;5014194;28;20171;-83
2023/03/22 08:37:19;;;;;;;2.72;1.38;;;;;;;;;;5012586;28;20568;-83
2023/03/22 08:39:47;;;;;;;2.55;1.10;;;;;;;;;;5012630;28;20053;-82
2023/03/22 08:42:16;;;;;;;2.40;1.27;;;;;;;;;;5014941;28;20096;-83
2023/03/22 08:44:44;;;;;;;1.83;0.88;;;;;;;;;;5010531;28;20082;-83
2023/03/22 08:47:14;;;;;;;5.40;1.67;;;;;;;;;;5011684;28;20062;-83
2023/03/22 08:49:43;;;;;;;2.47;1.27;;;;;;;;;;5009363;28;20073;-83
2023/03/22 08:52:11;;;;;;;2.15;0.98;;;;;;;;;;5012339;28;20132;-83
2023/03/22 08:54:40;;;;;;;1.17;0.75;;;;;;;;;;5010728;28;20057;-82
2023/03/22 08:57:09;;;;;;;1.65;1.30;;;;;;;;;;5008080;28;20108;-82
2023/03/22 08:59:37;;;;;;;1.13;0.70;;;;;;;;;;5013612;28;20108;-83
2023/03/22 09:02:06;;;;;;;1.77;0.98;;;;;;;;;;5014304;28;20133;-83
2023/03/22 09:04:36;;;;;;;1.70;1.02;;;;;;;;;;5016257;28;20461;-82
2023/03/22 09:07:05;;;;;;;1.65;0.95;;;;;;;;;;5020813;28;20049;-82
2023/03/22 09:09:33;;;;;;;2.58;1.42;;;;;;;;;;5024114;28;20088;-82
2023/03/22 09:12:01;;;;;;;1.90;1.10;;;;;;;;;;5023228;28;20061;-83
2023/03/22 09:14:30;;;;;;;2.75;1.38;;;;;;;;;;5021575;28;20057;-83
2023/03/22 09:16:59;;;;;;;2.05;0.90;;;;;;;;;;5022783;28;20501;-82
2023/03/22 09:19:27;;;;;;;3.50;1.00;;;;;;;;;;5023126;28;20064;-82
2023/03/22 09:21:57;;;;;;;1.48;0.73;;;;;;;;;;5022204;28;20545;-82
2023/03/22 09:24:26;;;;;;;2.78;0.85;;;;;;;;;;5023096;28;21028;-83
2023/03/22 09:26:56;;;;;;;1.55;1.00;;;;;;;;;;5023141;28;20080;-83
2023/03/22 09:29:25;;;;;;;1.95;0.95;;;;;;;;;;5023503;28;20081;-82
2023/03/22 09:31:53;;;;;;;1.77;0.90;;;;;;;;;;5021610;28;20136;-83
2023/03/22 09:34:22;;;;;;;3.88;1.23;;;;;;;;;;5023809;28;20133;-82
2023/03/22 09:36:53;;;;;;;0.98;0.80;;;;;;;;;;5021337;28;20140;-83
2023/03/22 09:39:27;;;;;;;1.73;1.10;;;;;;;;;;5024249;28;20438;-82
2023/03/22 09:41:58;;;;;;;1.85;1.10;;;;;;;;;;5022173;28;20061;-82
2023/03/22 09:44:27;;;;;;;4.78;1.38;;;;;;;;;;5023058;28;20544;-82
2023/03/22 09:46:58;;;;;;;3.92;1.10;;;;;;;;;;5019518;28;20069;-82
2023/03/22 09:49:29;;;;;;;1.55;0.55;;;;;;;;;;5020356;28;20045;-83
2023/03/22 09:51:57;;;;;;;1.95;0.82;;;;;;;;;;5024058;28;20411;-83
2023/03/22 09:54:31;;;;;;;1.33;0.77;;;;;;;;;;5021840;28;20502;-83
2023/03/22 09:57:02;;;;;;;0.75;0.60;;;;;;;;;;5020874;28;20369;-84
2023/03/22 09:59:35;;;;;;;0.93;0.60;;;;;;;;;;5024630;28;20164;-84
2023/03/22 10:02:05;;;;;;;1.75;0.88;;;;;;;;;;5020673;28;20073;-83
2023/03/22 10:04:49;;;;;;;1.65;0.80;;;;;;;;;;5022715;28;20081;-83
2023/03/22 10:07:26;;;;;;;7.88;1.08;;;;;;;;;;5022900;28;20080;-83
2023/03/22 10:09:59;;;;;;;1.42;0.77;;;;;;;;;;5017183;28;20107;-83
2023/03/22 10:12:30;;;;;;;1.55;0.95;;;;;;;;;;5022783;28;20173;-83
2023/03/22 10:15:03;;;;;;;2.33;0.80;;;;;;;;;;5020520;28;20119;-81
2023/03/22 10:17:32;;;;;;;2.80;0.55;;;;;;;;;;5021731;28;20061;-84
2023/03/22 10:20:04;;;;;;;1.50;0.80;;;;;;;;;;5021383;28;20107;-82
2023/03/22 10:22:36;;;;;;;3.35;1.02;;;;;;;;;;5023280;28;20076;-80
2023/03/22 10:25:07;;;;;;;2.45;1.20;;;;;;;;;;5003673;28;20123;-84
2023/03/22 10:27:38;;;;;;;1.20;0.93;;;;;;;;;;5022684;28;20084;-82
2023/03/22 10:30:08;;;;;;;1.95;0.90;;;;;;;;;;5028850;28;20045;-82
2023/03/22 10:32:41;;;;;;;1.65;0.98;;;;;;;;;;5029749;28;20163;-82
2023/03/22 10:35:24;;;;;;;0.98;0.60;;;;;;;;;;5029438;28;20054;-82
2023/03/22 10:37:55;;;;;;;1.15;0.63;;;;;;;;;;5028449;28;20555;-82
2023/03/22 10:40:27;;;;;;;0.70;0.63;;;;;;;;;;5027996;28;20405;-82
2023/03/22 10:42:57;;;;;;;2.10;0.90;;;;;;;;;;5030388;28;20476;-81
2023/03/22 10:45:26;;;;;;;2.05;0.70;;;;;;;;;;5027232;28;20041;-83
2023/03/22 10:47:58;;;;;;;2.25;1.00;;;;;;;;;;5030196;28;20072;-82
2023/03/22 10:50:30;;;;;;;1.20;0.55;;;;;;;;;;5029736;28;20045;-81
2023/03/22 10:53:01;;;;;;;1.00;0.60;;;;;;;;;;5031324;28;20928;-84
2023/03/22 10:55:31;;;;;;;1.00;0.55;;;;;;;;;;5029288;28;20084;-84
2023/03/22 10:58:06;;;;;;;1.13;0.98;;;;;;;;;;5030156;28;20081;-83
2023/03/22 11:00:34;;;;;;;1.50;0.60;;;;;;;;;;5026955;28;20083;-81
2023/03/22 11:03:07;;;;;;;1.05;0.70;;;;;;;;;;5028649;28;20072;-82
2023/03/22 11:05:36;;;;;;;0.90;0.88;;;;;;;;;;5028898;28;20071;-81
2023/03/22 11:08:05;;;;;;;0.63;0.50;;;;;;;;;;5029450;28;20049;-82
2023/03/22 11:10:35;;;;;;;1.80;0.90;;;;;;;;;;5031045;28;20057;-82
2023/03/22 11:13:17;;;;;;;2.17;1.23;;;;;;;;;;5028739;28;20045;-83
2023/03/22 11:15:52;;;;;;;2.25;0.70;;;;;;;;;;5027403;28;20152;-84
2023/03/22 11:18:20;;;;;;;3.70;0.97;;;;;;;;;;5030001;28;20432;-81
2023/03/22 11:20:57;;;;;;;1.17;0.57;;;;;;;;;;5029234;28;20644;-81
2023/03/22 11:23:27;;;;;;;0.50;0.50;;;;;;;;;;5027904;28;20927;-81
2023/03/22 11:25:59;;;;;;;5.03;0.82;;;;;;;;;;5029095;28;20330;-80
2023/03/22 11:28:29;;;;;;;1.30;0.90;;;;;;;;;;5024678;28;20433;-80
2023/03/22 11:30:59;;;;;;;0.88;0.63;;;;;;;;;;5029819;28;20128;-81
2023/03/22 11:33:28;;;;;;;4.15;0.55;;;;;;;;;;5029940;28;20150;-80
2023/03/22 11:35:57;;;;;;;0.73;0.50;;;;;;;;;;5027108;28;20498;-80
2023/03/22 11:38:28;;;;;;;1.25;0.63;;;;;;;;;;5028519;28;20140;-80
2023/03/22 11:41:00;;;;;;;0.95;0.43;;;;;;;;;;5024335;28;20041;-79
2023/03/22 11:43:33;;;;;;;2.15;0.65;;;;;;;;;;5021703;28;20060;-80
2023/03/22 11:46:02;;;;;;;1.50;0.70;;;;;;;;;;5021858;28;20048;-80
2023/03/22 11:48:31;;;;;;;0.70;0.50;;;;;;;;;;5023675;28;20419;-80
2023/03/22 11:51:04;;;;;;;2.15;1.13;;;;;;;;;;5024901;28;20140;-79
2023/03/22 11:53:34;;;;;;;2.40;0.80;;;;;;;;;;5024447;28;20054;-80
2023/03/22 11:56:06;;;;;;;2.05;0.95;;;;;;;;;;5021376;28;20053;-80
2023/03/22 11:58:45;;;;;;;0.50;0.50;;;;;;;;;;5026882;28;20052;-80
2023/03/22 12:01:16;;;;;;;1.88;0.80;;;;;;;;;;5027002;28;20092;-80
2023/03/22 12:03:47;;;;;;;0.82;0.55;;;;;;;;;;5025927;28;20053;-80
2023/03/22 12:06:19;;;;;;;1.23;0.70;;;;;;;;;;5008791;28;20049;-80
2023/03/22 12:08:50;;;;;;;1.20;0.57;;;;;;;;;;5016399;28;20049;-80
2023/03/22 12:11:26;;;;;;;1.02;0.63;;;;;;;;;;5012415;28;20402;-81
2023/03/22 12:13:57;;;;;;;0.65;0.45;;;;;;;;;;5017821;28;20753;-80
2023/03/22 12:16:28;;;;;;;1.27;0.85;;;;;;;;;;5009973;28;20060;-80
2023/03/22 12:19:01;;;;;;;0.65;0.50;;;;;;;;;;5012334;28;20056;-80
2023/03/22 12:21:30;;;;;;;2.50;0.80;;;;;;;;;;5014444;28;20100;-82
2023/03/22 12:24:01;;;;;;;1.55;0.50;;;;;;;;;;5007320;28;20079;-79
2023/03/22 12:26:34;;;;;;;1.73;0.70;;;;;;;;;;5007275;28;20050;-79
2023/03/22 12:29:04;;;;;;;1.58;0.80;;;;;;;;;;5003584;28;20104;-79
2023/03/22 12:31:36;;;;;;;1.50;0.70;;;;;;;;;;5011688;28;20498;-79
2023/03/22 12:34:06;;;;;;;0.77;0.60;;;;;;;;;;5008075;28;20042;-79
2023/03/22 12:36:38;;;;;;;1.05;0.88;;;;;;;;;;5014266;28;20077;-78
2023/03/22 12:39:07;;;;;;;1.40;1.00;;;;;;;;;;5015256;28;20134;-79
2023/03/22 12:41:39;;;;;;;1.13;0.70;;;;;;;;;;5013200;28;20050;-80
2023/03/22 12:44:12;;;;;;;2.67;0.95;;;;;;;;;;5012737;28;20045;-79
2023/03/22 12:46:45;;;;;;;1.17;0.95;;;;;;;;;;5010444;28;20405;-79
2023/03/22 12:49:18;;;;;;;0.90;0.60;;;;;;;;;;5011902;28;20045;-79
2023/03/22 12:51:47;;;;;;;1.45;0.75;;;;;;;;;;5005250;28;20124;-80
2023/03/22 12:54:17;;;;;;;1.40;0.45;;;;;;;;;;5006196;28;20133;-80
2023/03/22 12:56:47;;;;;;;1.38;0.88;;;;;;;;;;5010879;28;20108;-80
2023/03/22 12:59:17;;;;;;;0.60;0.28;;;;;;;;;;5013419;28;20132;-80
2023/03/22 13:01:46;;;;;;;0.75;0.50;;;;;;;;;;5013573;28;20050;-80
2023/03/22 13:04:30;;;;;;;1.75;0.63;;;;;;;;;;5012138;28;20081;-79
2023/03/22 13:07:08;;;;;;;1.17;0.50;;;;;;;;;;5022166;28;20054;-79
2023/03/22 13:09:39;;;;;;;1.48;0.75;;;;;;;;;;5023384;28;20156;-80
2023/03/22 13:12:28;;;;;;;0.82;0.52;;;;;;;;;;5020208;28;20114;-79
2023/03/22 13:14:59;;;;;;;0.68;0.38;;;;;;;;;;5020754;28;20104;-79
2023/03/22 13:17:38;;;;;;;2.50;0.65;;;;;;;;;;5022966;28;20072;-79
2023/03/22 13:20:27;;;;;;;1.42;0.50;;;;;;;;;;5022213;28;20045;-79
2023/03/22 13:23:03;;;;;;;1.25;0.70;;;;;;;;;;5023552;28;20053;-79
2023/03/22 13:25:34;;;;;;;1.25;0.45;;;;;;;;;;5021615;28;20073;-80
2023/03/22 13:28:05;;;;;;;1.00;0.57;;;;;;;;;;5025184;28;20096;-79
2023/03/22 13:30:36;;;;;;;0.85;0.40;;;;;;;;;;5020121;28;20099;-81
2023/03/22 13:33:14;;;;;;;1.33;0.70;;;;;;;;;;5022484;28;20079;-79
2023/03/22 13:35:44;;;;;;;0.43;0.30;;;;;;;;;;5019512;28;20053;-79
2023/03/22 13:38:20;;;;;;;0.70;0.50;;;;;;;;;;5024914;28;20053;-80
2023/03/22 13:40:53;;;;;;;0.47;0.32;;;;;;;;;;5019181;28;20095;-80
2023/03/22 13:43:25;;;;;;;4.63;0.50;;;;;;;;;;5023072;28;20474;-80
2023/03/22 13:46:03;;;;;;;1.42;0.30;;;;;;;;;;5024540;28;20132;-81
2023/03/22 13:48:41;;;;;;;0.47;0.25;;;;;;;;;;5019393;28;20048;-81
2023/03/22 13:51:11;;;;;;;0.40;0.30;;;;;;;;;;5022479;28;20142;-80
2023/03/22 13:53:42;;;;;;;0.98;0.40;;;;;;;;;;5022402;28;20049;-81
2023/03/22 13:56:13;;;;;;;3.00;0.43;;;;;;;;;;5020374;28;20069;-81
2023/03/22 13:58:52;;;;;;;0.20;0.20;;;;;;;;;;5022947;28;20111;-80
2023/03/22 14:01:27;;;;;;;0.43;0.32;;;;;;;;;;5023345;28;20058;-81
2023/03/22 14:04:00;;;;;;;1.13;0.25;;;;;;;;;;5020585;28;20057;-82
2023/03/22 14:06:30;;;;;;;1.10;0.60;;;;;;;;;;5021239;28;20053;-80
2023/03/22 14:09:03;;;;;;;0.22;0.22;;;;;;;;;;5022317;28;20122;-80
2023/03/22 14:11:35;;;;;;;0.50;0.35;;;;;;;;;;5022209;28;20076;-81
2023/03/22 14:14:07;;;;;;;0.20;0.10;;;;;;;;;;5019952;28;20124;-81
2023/03/22 14:16:38;;;;;;;2.25;0.40;;;;;;;;;;5019226;28;20481;-80
2023/03/22 14:19:08;;;;;;;0.90;0.45;;;;;;;;;;5020577;28;20079;-77
2023/03/22 14:21:39;;;;;;;1.70;0.43;;;;;;;;;;5022580;28;20092;-81
2023/03/22 14:24:08;;;;;;;0.25;0.22;;;;;;;;;;5022771;28;20533;-81
2023/03/22 14:26:37;;;;;;;2.90;0.30;;;;;;;;;;5018534;28;20053;-80
2023/03/22 14:29:07;;;;;;;0.82;0.30;;;;;;;;;;5021820;28;20057;-80
2023/03/22 14:31:34;;;;;;;0.85;0.40;;;;;;;;;;5018723;28;20053;-80
2023/03/22 14:34:03;;;;;;;0.73;0.50;;;;;;;;;;5022608;28;20140;-81
2023/03/22 14:36:36;;;;;;;0.28;0.28;;;;;;;;;;5020687;28;20060;-81
2023/03/22 14:39:04;;;;;;;0.65;0.38;;;;;;;;;;5020870;28;20140;-81
2023/03/22 14:41:32;;;;;;;0.75;0.20;;;;;;;;;;5020215;28;20144;-80
2023/03/22 14:44:00;;;;;;;0.68;0.30;;;;;;;;;;5020811;28;20057;-80
2023/03/22 14:46:34;;;;;;;0.30;0.28;;;;;;;;;;5023216;28;20128;-80
2023/03/22 14:49:03;;;;;;;0.73;0.40;;;;;;;;;;5003312;28;20490;-80
2023/03/22 14:51:32;;;;;;;0.47;0.40;;;;;;;;;;5002150;28;21484;-80
2023/03/22 14:54:00;;;;;;;0.60;0.30;;;;;;;;;;5020378;28;20474;-81
2023/03/22 14:56:30;;;;;;;0.43;0.28;;;;;;;;;;5001032;28;20083;-80
2023/03/22 14:58:59;;;;;;;1.95;0.40;;;;;;;;;;5003681;28;20041;-80
2023/03/22 15:01:29;;;;;;;1.17;0.30;;;;;;;;;;5002481;28;20058;-80
2023/03/22 15:03:59;;;;;;;1.35;0.50;;;;;;;;;;5021251;28;20049;-80